Time;durP1;ratioP1;P1;durP2;ratioP2;P2;SDS_P1;SDS_P2;PMS_P1;PMS_P2;Temp;Humidity;BMP_temperature;BMP_pressure;BME280_temperature;BME280_humidity;BME280_pressure;Samples;Min_cycle;Max_cycle;Signal;HPM_P1;HPM_P2
2023/12/10 00:01:22;;;;;;;;;;;17.40;54.10;;;;;;7394404;19;4435;-61
2023/12/10 00:03:47;;;;;;;;;;;17.40;54.10;;;;;;7394234;19;4823;-63
2023/12/10 00:06:12;;;;;;;;;;;17.40;54.20;;;;;;7397295;19;4365;-61
2023/12/10 00:08:38;;;;;;;;;;;17.40;54.30;;;;;;7394363;19;4379;-61
2023/12/10 00:11:03;;;;;;;;;;;17.30;54.40;;;;;;7395482;19;4316;-61
2023/12/10 00:13:29;;;;;;;;;;;17.30;54.20;;;;;;7401079;19;3546;-62
2023/12/10 00:15:54;;;;;;;;;;;17.30;54.50;;;;;;7402983;19;1503;-61
2023/12/10 00:18:20;;;;;;;;;;;17.20;54.60;;;;;;7397176;19;2411;-62
2023/12/10 00:20:45;;;;;;;;;;;17.20;54.40;;;;;;7394490;19;5652;-62
2023/12/10 00:23:11;;;;;;;;;;;17.20;54.30;;;;;;7395295;19;4185;-61
2023/12/10 00:25:37;;;;;;;;;;;17.20;54.40;;;;;;7391102;19;4386;-61
2023/12/10 00:28:03;;;;;;;;;;;17.20;54.30;;;;;;7397734;19;3442;-61
2023/12/10 00:30:28;;;;;;;;;;;17.20;54.30;;;;;;7399703;19;1588;-61
2023/12/10 00:32:54;;;;;;;;;;;17.20;54.50;;;;;;7398700;19;1197;-62
2023/12/10 00:35:19;;;;;;;;;;;17.20;54.40;;;;;;7394708;19;5148;-62
2023/12/10 00:37:45;;;;;;;;;;;17.10;54.40;;;;;;7395828;19;4375;-61
2023/12/10 00:40:10;;;;;;;;;;;17.10;54.60;;;;;;7394154;19;4361;-61
2023/12/10 00:42:36;;;;;;;;;;;17.10;54.40;;;;;;7396694;19;4067;-61
2023/12/10 00:45:01;;;;;;;;;;;17.10;54.60;;;;;;7395492;19;4112;-61
2023/12/10 00:47:27;;;;;;;;;;;17.00;54.50;;;;;;7394295;19;4579;-61
2023/12/10 00:49:52;;;;;;;;;;;17.00;54.60;;;;;;7395682;19;4445;-61
2023/12/10 00:52:17;;;;;;;;;;;17.00;54.60;;;;;;7394002;19;3883;-61
2023/12/10 00:54:43;;;;;;;;;;;17.00;54.60;;;;;;7392839;19;3605;-61
2023/12/10 00:57:11;;;;;;;;;;;16.90;54.40;;;;;;7393058;19;5235;-61
2023/12/10 00:59:36;;;;;;;;;;;17.00;54.50;;;;;;7389892;19;4197;-61
2023/12/10 01:02:01;;;;;;;;;;;16.90;54.50;;;;;;7392440;19;4549;-61
2023/12/10 01:04:27;;;;;;;;;;;17.00;54.50;;;;;;7392566;19;3776;-62
2023/12/10 01:06:52;;;;;;;;;;;17.00;54.60;;;;;;7392557;19;5031;-61
2023/12/10 01:09:18;;;;;;;;;;;16.90;54.60;;;;;;7393482;19;4344;-61
2023/12/10 01:11:43;;;;;;;;;;;16.90;54.50;;;;;;7391414;19;4348;-61
2023/12/10 01:14:08;;;;;;;;;;;16.90;54.30;;;;;;7393687;19;4584;-63
2023/12/10 01:16:34;;;;;;;;;;;16.90;54.30;;;;;;7392279;19;3591;-62
2023/12/10 01:18:59;;;;;;;;;;;16.90;54.40;;;;;;7394723;19;4126;-61
2023/12/10 01:21:25;;;;;;;;;;;16.90;54.40;;;;;;7394784;19;3926;-61
2023/12/10 01:23:54;;;;;;;;;;;16.90;54.30;;;;;;7393091;19;3425;-62
2023/12/10 01:26:19;;;;;;;;;;;16.90;54.50;;;;;;7394409;19;3520;-61
2023/12/10 01:28:45;;;;;;;;;;;16.90;54.60;;;;;;7391051;19;4611;-62
2023/12/10 01:31:10;;;;;;;;;;;16.90;54.50;;;;;;7394197;19;4369;-61
2023/12/10 01:33:36;;;;;;;;;;;16.90;54.60;;;;;;7392994;19;3284;-62
2023/12/10 01:36:01;;;;;;;;;;;16.90;54.50;;;;;;7394382;19;4742;-62
2023/12/10 01:38:26;;;;;;;;;;;16.80;54.90;;;;;;7391808;19;4234;-62
2023/12/10 01:40:52;;;;;;;;;;;16.80;54.70;;;;;;7393754;19;3831;-62
2023/12/10 01:43:17;;;;;;;;;;;16.80;54.70;;;;;;7393757;19;4219;-62
2023/12/10 01:45:48;;;;;;;;;;;16.80;54.90;;;;;;7392661;19;4313;-61
2023/12/10 01:48:14;;;;;;;;;;;16.70;54.70;;;;;;7390932;19;4656;-61
2023/12/10 01:50:39;;;;;;;;;;;16.80;54.70;;;;;;7392918;19;5144;-63
2023/12/10 01:53:05;;;;;;;;;;;16.80;54.70;;;;;;7392986;19;3890;-61
2023/12/10 01:55:30;;;;;;;;;;;16.70;54.80;;;;;;7390776;19;3626;-61
2023/12/10 01:57:55;;;;;;;;;;;16.70;54.70;;;;;;7388739;19;4454;-62
2023/12/10 02:00:21;;;;;;;;;;;16.70;54.60;;;;;;7388907;19;3679;-61
2023/12/10 02:02:47;;;;;;;;;;;16.70;54.60;;;;;;7391393;19;3554;-62
2023/12/10 02:05:12;;;;;;;;;;;16.70;54.80;;;;;;7394137;19;3621;-61
2023/12/10 02:07:38;;;;;;;;;;;16.70;54.90;;;;;;7393848;19;3321;-62
2023/12/10 02:10:05;;;;;;;;;;;16.70;55.00;;;;;;7391647;19;4111;-62
2023/12/10 02:12:31;;;;;;;;;;;16.70;54.50;;;;;;7391901;19;5521;-61
2023/12/10 02:14:56;;;;;;;;;;;16.70;54.60;;;;;;7390879;19;4539;-61
2023/12/10 02:17:22;;;;;;;;;;;16.70;54.60;;;;;;7391542;19;3235;-61
2023/12/10 02:19:47;;;;;;;;;;;16.80;54.40;;;;;;7391841;19;4076;-60
2023/12/10 02:22:13;;;;;;;;;;;16.90;54.30;;;;;;7392672;19;3677;-63
2023/12/10 02:24:44;;;;;;;;;;;17.00;54.00;;;;;;7388908;19;3714;-61
2023/12/10 02:27:09;;;;;;;;;;;17.20;53.60;;;;;;7390397;19;4925;-62
2023/12/10 02:29:35;;;;;;;;;;;17.40;53.20;;;;;;7389854;19;4397;-61
2023/12/10 02:32:00;;;;;;;;;;;17.60;53.00;;;;;;7391286;19;4365;-61
2023/12/10 02:34:26;;;;;;;;;;;17.80;52.80;;;;;;7389440;19;4729;-62
2023/12/10 02:36:51;;;;;;;;;;;18.00;52.50;;;;;;7392973;19;4844;-61
2023/12/10 02:39:17;;;;;;;;;;;18.10;52.20;;;;;;7391092;19;4671;-61
2023/12/10 02:41:42;;;;;;;;;;;18.20;52.10;;;;;;7390724;19;4256;-61
2023/12/10 02:44:07;;;;;;;;;;;18.20;51.80;;;;;;7389021;19;3927;-61
2023/12/10 02:46:33;;;;;;;;;;;18.30;51.80;;;;;;7390080;19;3328;-61
2023/12/10 02:48:58;;;;;;;;;;;18.30;51.60;;;;;;7391218;19;3898;-62
2023/12/10 02:51:24;;;;;;;;;;;18.40;51.70;;;;;;7392103;19;5325;-61
2023/12/10 02:53:49;;;;;;;;;;;18.30;51.60;;;;;;7390494;19;4187;-62
2023/12/10 02:56:15;;;;;;;;;;;18.30;51.50;;;;;;7391064;19;4158;-61
2023/12/10 02:58:40;;;;;;;;;;;18.30;51.70;;;;;;7386362;19;5562;-61
2023/12/10 03:01:06;;;;;;;;;;;18.30;51.60;;;;;;7389639;19;3678;-61
2023/12/10 03:03:31;;;;;;;;;;;18.20;51.70;;;;;;7390227;19;3643;-61
2023/12/10 03:05:57;;;;;;;;;;;18.10;51.90;;;;;;7391367;19;5510;-62
2023/12/10 03:08:22;;;;;;;;;;;18.10;52.10;;;;;;7390209;19;4604;-61
2023/12/10 03:10:47;;;;;;;;;;;18.00;52.00;;;;;;7391571;19;4212;-61
2023/12/10 03:13:13;;;;;;;;;;;18.00;52.00;;;;;;7389421;19;4171;-62
2023/12/10 03:15:38;;;;;;;;;;;18.00;52.00;;;;;;7390521;19;4669;-61
2023/12/10 03:18:05;;;;;;;;;;;18.00;52.10;;;;;;7396298;19;3221;-61
2023/12/10 03:20:31;;;;;;;;;;;17.90;52.00;;;;;;7392231;19;3464;-61
2023/12/10 03:22:56;;;;;;;;;;;18.00;52.10;;;;;;7390356;19;4304;-61
2023/12/10 03:25:22;;;;;;;;;;;17.90;52.10;;;;;;7389033;19;4682;-61
2023/12/10 03:27:47;;;;;;;;;;;17.90;52.10;;;;;;7388303;19;4756;-61
2023/12/10 03:30:12;;;;;;;;;;;17.80;52.00;;;;;;7390347;19;5446;-61
2023/12/10 03:32:38;;;;;;;;;;;17.80;52.30;;;;;;7391113;19;4842;-61
2023/12/10 03:35:03;;;;;;;;;;;17.80;52.60;;;;;;7397088;19;3742;-61
2023/12/10 03:37:29;;;;;;;;;;;17.70;52.40;;;;;;7395184;19;5476;-62
2023/12/10 03:39:54;;;;;;;;;;;17.70;52.60;;;;;;7396523;19;4614;-61
2023/12/10 03:42:20;;;;;;;;;;;17.70;52.60;;;;;;7396464;19;4150;-61
2023/12/10 03:44:45;;;;;;;;;;;17.70;52.80;;;;;;7395311;19;3542;-62
2023/12/10 03:47:11;;;;;;;;;;;17.60;52.90;;;;;;7395546;19;3893;-61
2023/12/10 03:49:36;;;;;;;;;;;17.60;52.90;;;;;;7392854;19;3712;-61
2023/12/10 03:52:02;;;;;;;;;;;17.70;53.00;;;;;;7395042;19;3245;-61
2023/12/10 03:54:27;;;;;;;;;;;17.60;52.80;;;;;;7394040;19;4329;-62
2023/12/10 03:56:53;;;;;;;;;;;17.60;53.00;;;;;;7396632;19;3485;-61
2023/12/10 03:59:18;;;;;;;;;;;17.60;53.00;;;;;;7393717;19;4092;-61
2023/12/10 04:01:43;;;;;;;;;;;17.60;53.00;;;;;;7398467;19;3609;-62
2023/12/10 04:04:09;;;;;;;;;;;17.60;53.00;;;;;;7397726;19;4055;-62
2023/12/10 04:06:41;;;;;;;;;;;17.50;52.90;;;;;;7394964;19;4525;-61
2023/12/10 04:09:07;;;;;;;;;;;17.50;53.00;;;;;;7395517;19;3466;-61
2023/12/10 04:11:32;;;;;;;;;;;17.50;52.90;;;;;;7395484;19;4479;-61
2023/12/10 04:13:58;;;;;;;;;;;17.50;52.90;;;;;;7396260;19;3846;-62
2023/12/10 04:16:24;;;;;;;;;;;17.50;52.90;;;;;;7395179;19;5463;-61
2023/12/10 04:18:49;;;;;;;;;;;17.50;52.90;;;;;;7394548;19;4536;-61
2023/12/10 04:21:17;;;;;;;;;;;17.50;53.00;;;;;;7395312;19;5427;-61
2023/12/10 04:23:42;;;;;;;;;;;17.50;53.00;;;;;;7395978;19;3576;-61
2023/12/10 04:26:08;;;;;;;;;;;17.50;52.90;;;;;;7393732;19;3644;-62
2023/12/10 04:28:33;;;;;;;;;;;17.50;53.20;;;;;;7395197;19;4092;-61
2023/12/10 04:30:58;;;;;;;;;;;17.50;52.90;;;;;;7395381;19;3804;-61
2023/12/10 04:33:24;;;;;;;;;;;17.50;52.90;;;;;;7395786;19;4642;-62
2023/12/10 04:35:49;;;;;;;;;;;17.50;52.90;;;;;;7395482;19;4972;-62
2023/12/10 04:38:15;;;;;;;;;;;17.50;52.90;;;;;;7394571;19;4224;-62
2023/12/10 04:40:43;;;;;;;;;;;17.50;53.00;;;;;;7393937;19;3481;-60
2023/12/10 04:43:09;;;;;;;;;;;17.50;53.00;;;;;;7395595;19;3544;-61
2023/12/10 04:45:34;;;;;;;;;;;17.50;52.90;;;;;;7390313;19;4549;-61
2023/12/10 04:47:59;;;;;;;;;;;17.50;52.90;;;;;;7394131;19;3769;-61
2023/12/10 04:50:25;;;;;;;;;;;17.50;53.10;;;;;;7392668;19;4968;-61
2023/12/10 04:52:50;;;;;;;;;;;17.40;52.90;;;;;;7395740;19;4459;-61
2023/12/10 04:55:16;;;;;;;;;;;17.50;52.90;;;;;;7395616;19;4832;-61
2023/12/10 04:57:41;;;;;;;;;;;17.40;52.80;;;;;;7394812;19;4578;-62
2023/12/10 05:00:08;;;;;;;;;;;17.50;53.10;;;;;;7389272;19;4741;-61
2023/12/10 05:02:33;;;;;;;;;;;17.40;53.20;;;;;;7391691;19;4932;-61
2023/12/10 05:04:59;;;;;;;;;;;17.30;53.30;;;;;;7395080;19;4327;-61
2023/12/10 05:07:24;;;;;;;;;;;17.30;53.50;;;;;;7394657;19;4643;-62
2023/12/10 05:09:50;;;;;;;;;;;17.30;53.40;;;;;;7390591;19;4644;-61
2023/12/10 05:12:15;;;;;;;;;;;17.40;53.60;;;;;;7394781;19;4348;-61
2023/12/10 05:14:40;;;;;;;;;;;17.30;53.30;;;;;;7392948;19;3633;-62
2023/12/10 05:17:06;;;;;;;;;;;17.40;53.20;;;;;;7394152;19;3498;-61
2023/12/10 05:19:31;;;;;;;;;;;17.40;53.20;;;;;;7394410;19;4527;-61
2023/12/10 05:21:57;;;;;;;;;;;17.30;53.20;;;;;;7399395;19;4768;-61
2023/12/10 05:24:22;;;;;;;;;;;17.40;53.20;;;;;;7390628;19;4628;-62
2023/12/10 05:26:47;;;;;;;;;;;17.40;53.10;;;;;;7394125;19;4474;-61
2023/12/10 05:29:13;;;;;;;;;;;17.40;53.40;;;;;;7392961;19;4726;-61
2023/12/10 05:31:38;;;;;;;;;;;17.40;53.10;;;;;;7394453;19;4274;-61
2023/12/10 05:34:04;;;;;;;;;;;17.40;53.10;;;;;;7394670;19;4674;-61
2023/12/10 05:36:29;;;;;;;;;;;17.40;53.10;;;;;;7393882;19;4084;-61
2023/12/10 05:38:54;;;;;;;;;;;17.40;52.90;;;;;;7390628;19;3855;-62
2023/12/10 05:41:20;;;;;;;;;;;17.40;53.30;;;;;;7393950;19;4836;-61
2023/12/10 05:43:45;;;;;;;;;;;17.40;53.20;;;;;;7391248;19;3968;-61
2023/12/10 05:46:11;;;;;;;;;;;17.40;53.20;;;;;;7391610;19;3488;-61
2023/12/10 05:48:36;;;;;;;;;;;17.30;53.20;;;;;;7391100;19;4101;-61
2023/12/10 05:51:03;;;;;;;;;;;17.30;53.20;;;;;;7393848;19;4642;-61
2023/12/10 05:53:28;;;;;;;;;;;17.30;53.20;;;;;;7391073;19;4595;-61
2023/12/10 05:55:54;;;;;;;;;;;17.30;53.30;;;;;;7391822;19;4913;-61
2023/12/10 05:58:19;;;;;;;;;;;17.30;53.40;;;;;;7392830;19;4053;-62
2023/12/10 06:00:45;;;;;;;;;;;17.30;53.40;;;;;;7388773;19;3374;-62
2023/12/10 06:03:10;;;;;;;;;;;17.30;53.50;;;;;;7390529;19;4363;-62
2023/12/10 06:05:36;;;;;;;;;;;17.30;53.40;;;;;;7393110;19;4627;-61
2023/12/10 06:08:01;;;;;;;;;;;17.20;53.40;;;;;;7391137;19;4611;-61
2023/12/10 06:10:26;;;;;;;;;;;17.30;53.30;;;;;;7393853;19;3634;-62
2023/12/10 06:12:52;;;;;;;;;;;17.30;53.30;;;;;;7390591;19;4269;-61
2023/12/10 06:15:17;;;;;;;;;;;17.30;53.40;;;;;;7390517;19;3523;-62
2023/12/10 06:17:43;;;;;;;;;;;17.20;53.50;;;;;;7400502;19;839;-61
2023/12/10 06:20:09;;;;;;;;;;;17.20;53.50;;;;;;7394885;19;3876;-62
2023/12/10 06:22:34;;;;;;;;;;;17.20;53.60;;;;;;7388857;19;3594;-62
2023/12/10 06:25:00;;;;;;;;;;;17.20;53.60;;;;;;7398327;19;2534;-62
2023/12/10 06:27:25;;;;;;;;;;;17.20;53.70;;;;;;7391350;19;3352;-62
2023/12/10 06:29:51;;;;;;;;;;;17.20;53.60;;;;;;7389044;19;4576;-62
2023/12/10 06:32:16;;;;;;;;;;;17.20;53.60;;;;;;7391220;19;4303;-62
2023/12/10 06:34:42;;;;;;;;;;;17.20;53.60;;;;;;7392463;19;3956;-63
2023/12/10 06:37:07;;;;;;;;;;;17.20;53.70;;;;;;7389011;19;4406;-61
2023/12/10 06:39:33;;;;;;;;;;;17.20;53.70;;;;;;7390660;19;4577;-62
2023/12/10 06:41:58;;;;;;;;;;;17.20;53.60;;;;;;7389682;19;4491;-62
2023/12/10 06:44:24;;;;;;;;;;;17.20;53.50;;;;;;7391127;19;4732;-62
2023/12/10 06:46:50;;;;;;;;;;;17.20;53.40;;;;;;7389161;19;5947;-62
2023/12/10 06:49:16;;;;;;;;;;;17.30;53.40;;;;;;7389752;19;4275;-62
2023/12/10 06:51:41;;;;;;;;;;;17.30;53.30;;;;;;7389512;19;4858;-62
2023/12/10 06:54:07;;;;;;;;;;;17.30;53.40;;;;;;7393040;19;3621;-62
2023/12/10 06:56:38;;;;;;;;;;;17.30;53.40;;;;;;7391939;19;4014;-62
2023/12/10 06:59:04;;;;;;;;;;;17.30;53.40;;;;;;7389529;19;4159;-62
2023/12/10 07:01:29;;;;;;;;;;;17.20;53.40;;;;;;7388381;19;3930;-61
2023/12/10 07:03:54;;;;;;;;;;;17.30;53.70;;;;;;7388855;19;3698;-62
2023/12/10 07:06:21;;;;;;;;;;;17.20;53.40;;;;;;7392402;19;5476;-62
2023/12/10 07:08:46;;;;;;;;;;;17.30;53.60;;;;;;7385601;19;5487;-61
2023/12/10 07:11:12;;;;;;;;;;;17.20;53.50;;;;;;7389614;19;3534;-61
2023/12/10 07:13:37;;;;;;;;;;;17.20;53.40;;;;;;7391443;19;4107;-62
2023/12/10 07:16:03;;;;;;;;;;;17.30;53.50;;;;;;7389623;19;4603;-61
2023/12/10 07:18:28;;;;;;;;;;;17.30;53.40;;;;;;7391269;19;4332;-62
2023/12/10 07:20:54;;;;;;;;;;;17.30;53.30;;;;;;7391804;19;3596;-62
2023/12/10 07:23:20;;;;;;;;;;;17.30;53.40;;;;;;7388412;19;5449;-62
2023/12/10 07:25:45;;;;;;;;;;;17.30;53.50;;;;;;7390383;19;4834;-61
2023/12/10 07:28:11;;;;;;;;;;;17.20;53.40;;;;;;7387950;19;3560;-62
2023/12/10 07:30:36;;;;;;;;;;;17.20;53.50;;;;;;7397091;19;3604;-62
2023/12/10 07:33:02;;;;;;;;;;;17.20;53.60;;;;;;7391674;19;3933;-62
2023/12/10 07:35:27;;;;;;;;;;;17.20;53.50;;;;;;7390540;19;5655;-62
2023/12/10 07:37:53;;;;;;;;;;;17.20;53.50;;;;;;7389496;19;5523;-62
2023/12/10 07:40:18;;;;;;;;;;;17.20;53.50;;;;;;7389645;19;3835;-62
2023/12/10 07:42:45;;;;;;;;;;;17.20;53.60;;;;;;7387471;19;4709;-62
2023/12/10 07:45:10;;;;;;;;;;;17.10;53.60;;;;;;7389427;19;4332;-62
2023/12/10 07:47:36;;;;;;;;;;;17.20;53.60;;;;;;7387950;19;3616;-62
2023/12/10 07:50:01;;;;;;;;;;;17.20;53.80;;;;;;7389461;19;3635;-62
2023/12/10 07:52:26;;;;;;;;;;;17.20;53.80;;;;;;7388640;19;4452;-62
2023/12/10 07:54:52;;;;;;;;;;;17.20;53.80;;;;;;7390691;19;4515;-62
2023/12/10 07:57:17;;;;;;;;;;;17.20;53.90;;;;;;7390927;19;4313;-61
2023/12/10 07:59:43;;;;;;;;;;;17.10;53.80;;;;;;7387160;19;4290;-61
2023/12/10 08:02:08;;;;;;;;;;;17.10;53.80;;;;;;7379313;19;4158;-62
2023/12/10 08:04:34;;;;;;;;;;;17.10;53.70;;;;;;7384556;19;4608;-62
2023/12/10 08:06:59;;;;;;;;;;;17.10;53.80;;;;;;7389545;19;3768;-62
2023/12/10 08:09:24;;;;;;;;;;;17.10;53.80;;;;;;7386206;19;4459;-62
2023/12/10 08:11:50;;;;;;;;;;;17.10;53.80;;;;;;7387565;19;4697;-61
2023/12/10 08:14:15;;;;;;;;;;;17.10;53.90;;;;;;7389367;19;4185;-62
2023/12/10 08:16:41;;;;;;;;;;;17.10;53.70;;;;;;7388017;19;3999;-61
2023/12/10 08:19:06;;;;;;;;;;;17.10;53.70;;;;;;7388663;19;3687;-62
2023/12/10 08:21:31;;;;;;;;;;;17.10;53.70;;;;;;7396022;19;3721;-62
2023/12/10 08:23:57;;;;;;;;;;;17.20;53.70;;;;;;7394368;19;3506;-62
2023/12/10 08:26:22;;;;;;;;;;;17.20;53.70;;;;;;7395616;19;4455;-61
2023/12/10 08:28:48;;;;;;;;;;;17.20;53.70;;;;;;7390055;19;3739;-61
2023/12/10 08:31:13;;;;;;;;;;;17.20;53.60;;;;;;7395821;19;4522;-61
2023/12/10 08:33:39;;;;;;;;;;;17.20;53.50;;;;;;7396541;19;5511;-61
2023/12/10 08:36:04;;;;;;;;;;;17.20;53.50;;;;;;7400155;19;3311;-62
2023/12/10 08:38:30;;;;;;;;;;;17.20;53.60;;;;;;7393807;19;5293;-62
2023/12/10 08:40:56;;;;;;;;;;;17.20;53.50;;;;;;7395585;19;4270;-62
2023/12/10 08:43:21;;;;;;;;;;;17.30;53.60;;;;;;7394782;19;3576;-61
2023/12/10 08:45:46;;;;;;;;;;;17.20;53.50;;;;;;7393342;19;3683;-62
2023/12/10 08:48:12;;;;;;;;;;;17.30;53.60;;;;;;7396118;19;3654;-61
2023/12/10 08:50:37;;;;;;;;;;;17.30;53.50;;;;;;7396574;19;3698;-62
2023/12/10 08:53:03;;;;;;;;;;;17.30;53.40;;;;;;7393749;19;3378;-62
2023/12/10 08:55:28;;;;;;;;;;;17.30;53.30;;;;;;7394163;19;3692;-61
2023/12/10 08:57:53;;;;;;;;;;;17.30;53.30;;;;;;7393873;19;4965;-62
2023/12/10 09:00:19;;;;;;;;;;;17.30;53.50;;;;;;7393987;19;4024;-62
2023/12/10 09:02:44;;;;;;;;;;;17.20;53.50;;;;;;7390816;19;4153;-61
2023/12/10 09:05:10;;;;;;;;;;;17.20;53.50;;;;;;7392482;19;5784;-62
2023/12/10 09:07:35;;;;;;;;;;;17.20;53.60;;;;;;7394900;19;4621;-61
2023/12/10 09:10:00;;;;;;;;;;;17.20;53.70;;;;;;7393508;19;4555;-61
2023/12/10 09:12:29;;;;;;;;;;;17.20;53.60;;;;;;7394311;19;4523;-61
2023/12/10 09:14:54;;;;;;;;;;;17.20;53.80;;;;;;7392363;19;3850;-62
2023/12/10 09:17:20;;;;;;;;;;;17.20;53.60;;;;;;7393005;19;5088;-62
2023/12/10 09:19:45;;;;;;;;;;;17.20;53.60;;;;;;7393071;19;4481;-62
2023/12/10 09:22:11;;;;;;;;;;;17.20;53.70;;;;;;7394396;19;3904;-62
2023/12/10 09:24:36;;;;;;;;;;;17.20;53.50;;;;;;7391960;19;4410;-62
2023/12/10 09:27:02;;;;;;;;;;;17.20;53.60;;;;;;7395295;19;4177;-62
2023/12/10 09:29:27;;;;;;;;;;;17.20;53.60;;;;;;7391338;19;4616;-62
2023/12/10 09:31:52;;;;;;;;;;;17.30;53.70;;;;;;7391083;19;4489;-62
2023/12/10 09:34:18;;;;;;;;;;;17.30;53.60;;;;;;7393549;19;3648;-62
2023/12/10 09:36:43;;;;;;;;;;;17.30;53.70;;;;;;7394510;19;4569;-62
2023/12/10 09:39:09;;;;;;;;;;;17.30;53.50;;;;;;7389660;19;4667;-61
2023/12/10 09:41:34;;;;;;;;;;;17.10;53.40;;;;;;7392510;19;4088;-62
2023/12/10 09:44:00;;;;;;;;;;;17.20;53.60;;;;;;7392187;19;4022;-62
2023/12/10 09:46:25;;;;;;;;;;;17.20;53.70;;;;;;7390454;19;4707;-62
2023/12/10 09:48:50;;;;;;;;;;;17.20;53.60;;;;;;7391013;19;4177;-63
2023/12/10 09:51:16;;;;;;;;;;;17.20;53.60;;;;;;7391084;19;4554;-61
2023/12/10 09:53:41;;;;;;;;;;;17.20;53.80;;;;;;7393379;19;4502;-62
2023/12/10 09:56:07;;;;;;;;;;;17.20;53.70;;;;;;7390249;19;4458;-62
2023/12/10 09:58:33;;;;;;;;;;;17.10;53.70;;;;;;7390548;19;4223;-62
2023/12/10 10:01:02;;;;;;;;;;;17.20;53.70;;;;;;7386819;19;4157;-63
2023/12/10 10:03:28;;;;;;;;;;;17.30;53.70;;;;;;7391079;19;4526;-62
2023/12/10 10:05:54;;;;;;;;;;;17.20;53.80;;;;;;7387557;19;4527;-62
2023/12/10 10:08:19;;;;;;;;;;;17.30;53.80;;;;;;7389212;19;3584;-62
2023/12/10 10:10:44;;;;;;;;;;;17.30;53.80;;;;;;7395986;19;3704;-62
2023/12/10 10:13:10;;;;;;;;;;;17.30;53.90;;;;;;7388848;19;5447;-62
2023/12/10 10:15:35;;;;;;;;;;;17.20;53.90;;;;;;7391768;19;3673;-62
2023/12/10 10:18:01;;;;;;;;;;;17.20;54.00;;;;;;7391686;19;4766;-62
2023/12/10 10:20:26;;;;;;;;;;;17.10;54.00;;;;;;7391800;19;4733;-62
2023/12/10 10:22:52;;;;;;;;;;;17.10;54.00;;;;;;7388923;19;4836;-62
2023/12/10 10:25:18;;;;;;;;;;;17.20;54.00;;;;;;7390649;19;3710;-62
2023/12/10 10:27:43;;;;;;;;;;;17.20;54.00;;;;;;7389433;19;5437;-61
2023/12/10 10:30:09;;;;;;;;;;;17.20;54.10;;;;;;7387033;19;3865;-61
2023/12/10 10:32:34;;;;;;;;;;;17.20;53.90;;;;;;7391086;19;3771;-61
2023/12/10 10:35:03;;;;;;;;;;;17.20;53.90;;;;;;7388906;19;3825;-61
2023/12/10 10:37:28;;;;;;;;;;;17.20;53.90;;;;;;7387742;19;4086;-63
2023/12/10 10:39:54;;;;;;;;;;;17.20;53.90;;;;;;7388515;19;5573;-62
2023/12/10 10:42:19;;;;;;;;;;;17.20;54.10;;;;;;7387735;19;3409;-62
2023/12/10 10:44:46;;;;;;;;;;;17.20;54.00;;;;;;7389266;19;4705;-62
2023/12/10 10:47:11;;;;;;;;;;;17.10;54.10;;;;;;7390585;19;4176;-62
2023/12/10 10:49:37;;;;;;;;;;;17.10;54.10;;;;;;7387659;19;4136;-62
2023/12/10 10:52:04;;;;;;;;;;;17.10;54.10;;;;;;7389798;19;4646;-62
2023/12/10 10:54:30;;;;;;;;;;;17.20;54.30;;;;;;7388398;19;5863;-61
2023/12/10 10:56:55;;;;;;;;;;;17.20;54.10;;;;;;7390167;19;4498;-63
2023/12/10 10:59:27;;;;;;;;;;;17.20;54.10;;;;;;7389509;19;4470;-62
2023/12/10 11:01:53;;;;;;;;;;;17.20;54.10;;;;;;7389118;19;3703;-62
2023/12/10 11:04:18;;;;;;;;;;;17.30;53.80;;;;;;7387691;19;3730;-61
2023/12/10 11:06:47;;;;;;;;;;;17.40;53.60;;;;;;7384701;19;3580;-61
2023/12/10 11:09:12;;;;;;;;;;;17.60;53.40;;;;;;7388099;19;4513;-62
2023/12/10 11:11:41;;;;;;;;;;;17.70;53.40;;;;;;7389308;19;3703;-61
2023/12/10 11:14:24;;;;;;;;;;;18.10;53.20;;;;;;7386002;19;3932;-63
2023/12/10 11:16:50;;;;;;;;;;;18.60;52.20;;;;;;7388325;19;3218;-61
2023/12/10 11:19:17;;;;;;;;;;;19.10;51.10;;;;;;7385759;19;3288;-61
2023/12/10 11:21:43;;;;;;;;;;;19.40;50.30;;;;;;7387407;19;3542;-62
2023/12/10 11:24:08;;;;;;;;;;;19.70;49.80;;;;;;7385292;19;3163;-61
2023/12/10 11:26:34;;;;;;;;;;;19.80;49.50;;;;;;7386379;19;3952;-61
2023/12/10 11:29:01;;;;;;;;;;;20.00;49.20;;;;;;7386433;19;3621;-62
2023/12/10 11:31:26;;;;;;;;;;;20.10;49.00;;;;;;7387429;19;3250;-61
2023/12/10 11:33:52;;;;;;;;;;;20.30;48.70;;;;;;7391180;19;3680;-62
2023/12/10 11:36:17;;;;;;;;;;;20.40;48.50;;;;;;7388745;19;3251;-61
2023/12/10 11:38:46;;;;;;;;;;;20.50;48.30;;;;;;7387597;19;3221;-62
2023/12/10 11:41:12;;;;;;;;;;;20.50;48.30;;;;;;7387048;19;3278;-61
2023/12/10 11:43:37;;;;;;;;;;;20.60;48.20;;;;;;7388560;19;3729;-61
2023/12/10 11:46:04;;;;;;;;;;;20.70;48.30;;;;;;7386667;19;3241;-61
2023/12/10 11:48:29;;;;;;;;;;;20.60;48.10;;;;;;7387331;19;3938;-62
2023/12/10 11:50:55;;;;;;;;;;;20.60;48.10;;;;;;7392338;19;3627;-61
2023/12/10 11:53:20;;;;;;;;;;;20.60;48.30;;;;;;7387412;19;3241;-62
2023/12/10 11:55:48;;;;;;;;;;;20.70;48.30;;;;;;7393142;19;3611;-61
2023/12/10 11:58:13;;;;;;;;;;;20.90;48.10;;;;;;7395703;19;4635;-61
2023/12/10 12:00:54;;;;;;;;;;;20.80;48.00;;;;;;7393347;19;3982;-61
2023/12/10 12:03:20;;;;;;;;;;;20.90;48.00;;;;;;7395112;19;4645;-62
2023/12/10 12:05:49;;;;;;;;;;;20.90;48.00;;;;;;7395620;19;3671;-62
2023/12/10 12:08:15;;;;;;;;;;;20.90;48.00;;;;;;7391985;19;3282;-62
2023/12/10 12:10:40;;;;;;;;;;;21.00;48.10;;;;;;7394080;19;3514;-61
2023/12/10 12:13:06;;;;;;;;;;;20.90;48.30;;;;;;7395129;19;3518;-63
2023/12/10 12:15:31;;;;;;;;;;;21.10;48.20;;;;;;7399932;19;3521;-62
2023/12/10 12:17:57;;;;;;;;;;;21.00;48.30;;;;;;7399417;19;1631;-62
2023/12/10 12:20:24;;;;;;;;;;;21.00;48.40;;;;;;7402618;19;1313;-62
2023/12/10 12:22:49;;;;;;;;;;;21.00;48.60;;;;;;7395223;19;3343;-62
2023/12/10 12:25:15;;;;;;;;;;;21.10;48.80;;;;;;7394179;19;3419;-61
2023/12/10 12:27:41;;;;;;;;;;;21.10;48.90;;;;;;7393286;19;3278;-62
2023/12/10 12:30:07;;;;;;;;;;;21.10;48.80;;;;;;7393355;19;4360;-62
2023/12/10 12:32:32;;;;;;;;;;;21.10;48.70;;;;;;7395613;19;4547;-62
2023/12/10 12:34:58;;;;;;;;;;;21.10;48.80;;;;;;7393398;19;4464;-62
2023/12/10 12:37:23;;;;;;;;;;;21.30;48.80;;;;;;7395599;19;3592;-61
2023/12/10 12:39:49;;;;;;;;;;;21.10;48.90;;;;;;7399578;19;1514;-61
2023/12/10 12:42:15;;;;;;;;;;;21.30;49.00;;;;;;7394413;19;3452;-62
2023/12/10 12:44:40;;;;;;;;;;;21.30;49.00;;;;;;7395595;19;3693;-61
2023/12/10 12:47:06;;;;;;;;;;;21.40;49.00;;;;;;7396115;19;3722;-62
2023/12/10 12:49:31;;;;;;;;;;;21.30;49.00;;;;;;7392616;19;4733;-63
2023/12/10 12:51:57;;;;;;;;;;;21.30;49.00;;;;;;7395924;19;4394;-63
2023/12/10 12:54:22;;;;;;;;;;;21.30;49.10;;;;;;7392650;19;4562;-62
2023/12/10 12:56:48;;;;;;;;;;;21.40;49.10;;;;;;7395776;19;4216;-63
2023/12/10 12:59:13;;;;;;;;;;;21.40;49.10;;;;;;7393020;19;3396;-62
2023/12/10 13:01:39;;;;;;;;;;;21.40;49.00;;;;;;7387230;19;4754;-61
2023/12/10 13:04:04;;;;;;;;;;;21.40;49.00;;;;;;7389279;19;3462;-62
2023/12/10 13:06:30;;;;;;;;;;;21.40;49.10;;;;;;7390647;19;3899;-61
2023/12/10 13:08:55;;;;;;;;;;;21.50;49.10;;;;;;7386092;19;3663;-61
2023/12/10 13:11:21;;;;;;;;;;;21.50;49.20;;;;;;7393279;19;3599;-61
2023/12/10 13:13:46;;;;;;;;;;;21.50;49.00;;;;;;7395722;19;3283;-61
2023/12/10 13:16:12;;;;;;;;;;;21.50;49.10;;;;;;7398064;19;1444;-61
2023/12/10 13:18:37;;;;;;;;;;;21.60;49.10;;;;;;7396243;19;3607;-61
2023/12/10 13:21:03;;;;;;;;;;;21.60;49.70;;;;;;7390478;19;3682;-62
2023/12/10 13:23:29;;;;;;;;;;;21.70;49.10;;;;;;7390740;19;3418;-62
2023/12/10 13:25:54;;;;;;;;;;;21.60;49.20;;;;;;7385972;19;4930;-62
2023/12/10 13:28:19;;;;;;;;;;;21.70;49.80;;;;;;7390991;19;3781;-62
2023/12/10 13:30:45;;;;;;;;;;;21.60;49.30;;;;;;7392556;19;3608;-62
2023/12/10 13:33:10;;;;;;;;;;;21.60;49.20;;;;;;7394197;19;3551;-61
2023/12/10 13:35:36;;;;;;;;;;;21.60;49.20;;;;;;7395316;19;3429;-63
2023/12/10 13:38:02;;;;;;;;;;;21.70;49.20;;;;;;7391711;19;3699;-62
2023/12/10 13:40:27;;;;;;;;;;;21.70;49.10;;;;;;7392482;19;3241;-63
2023/12/10 13:42:52;;;;;;;;;;;21.70;49.30;;;;;;7389340;19;4570;-62
2023/12/10 13:45:18;;;;;;;;;;;21.60;49.20;;;;;;7390678;19;3171;-61
2023/12/10 13:47:43;;;;;;;;;;;21.60;49.30;;;;;;7392239;19;4283;-61
2023/12/10 13:50:09;;;;;;;;;;;21.60;49.30;;;;;;7394790;19;3553;-61
2023/12/10 13:52:34;;;;;;;;;;;21.60;49.40;;;;;;7397257;19;1521;-61
2023/12/10 13:55:00;;;;;;;;;;;21.70;49.40;;;;;;7392376;19;3147;-62
2023/12/10 13:57:27;;;;;;;;;;;21.80;49.30;;;;;;7392160;19;3907;-62
2023/12/10 13:59:53;;;;;;;;;;;21.70;49.50;;;;;;7391880;19;3945;-62
2023/12/10 14:02:18;;;;;;;;;;;21.70;49.80;;;;;;7397107;19;3148;-61
2023/12/10 14:04:44;;;;;;;;;;;21.70;49.70;;;;;;7391919;19;3667;-61
2023/12/10 14:07:10;;;;;;;;;;;21.70;49.80;;;;;;7390335;19;4051;-61
2023/12/10 14:09:35;;;;;;;;;;;21.80;49.70;;;;;;7382747;19;4214;-61
2023/12/10 14:12:01;;;;;;;;;;;21.90;49.60;;;;;;7391139;19;4002;-62
2023/12/10 14:14:26;;;;;;;;;;;21.80;49.70;;;;;;7392569;19;4313;-61
2023/12/10 14:16:52;;;;;;;;;;;21.70;50.10;;;;;;7390176;19;4803;-62
2023/12/10 14:19:17;;;;;;;;;;;21.70;49.90;;;;;;7392810;19;5153;-62
2023/12/10 14:21:43;;;;;;;;;;;21.80;50.00;;;;;;7390840;19;4672;-61